GFL weather

Floyd Bennett Memorial Airport
Glens Falls, New York, United States

Public forecast

Using degrees Fahrenheit for public forecast. Weather courtesy of forecast.io.

METAR (pilot weather report)

Retrieved 2019/05/26 23:53 UTC (42 minutes ago):

KGFL 262353Z AUTO 32008KT 10SM CLR 24/09 A2983 RMK AO2 SLP099 T02390089 10300 20239 53010

TAF (pilot weather forecast)

Forecast is more than 12 hours old.

Retrieved 2019/05/26 00:39 UTC (24 hours ago):

TAF KGFL 262336Z 2700/2724 32007KT P6SM BKN090 BKN250 FM270300 35004KT P6SM SCT050 BKN250 FM271100 02008KT P6SM FEW250 FM272100 02009KT P6SM BKN050 FM272200 03008KT P6SM SCT050